Time;durP1;ratioP1;P1;durP2;ratioP2;P2;SDS_P1;SDS_P2;PMS_P1;PMS_P2;Temp;Humidity;BMP_temperature;BMP_pressure;BME280_temperature;BME280_humidity;BME280_pressure;Samples;Min_cycle;Max_cycle;Signal;HPM_P1;HPM_P2
2022/09/17 00:00:16;;;;;;;7.93;2.23;;;11.40;99.90;;;;;;5072814;28;20196;-68
2022/09/17 00:02:43;;;;;;;4.97;1.90;;;11.40;99.90;;;;;;5072937;28;20212;-69
2022/09/17 00:05:09;;;;;;;4.97;1.80;;;11.50;99.90;;;;;;5072734;28;20223;-68
2022/09/17 00:07:35;;;;;;;4.50;1.87;;;11.50;99.90;;;;;;5072854;28;20208;-68
2022/09/17 00:10:01;;;;;;;11.60;2.40;;;11.60;99.90;;;;;;5072409;28;20263;-68
2022/09/17 00:12:26;;;;;;;8.67;2.47;;;11.60;99.90;;;;;;5072654;28;20204;-67
2022/09/17 00:14:52;;;;;;;9.37;2.00;;;11.60;99.90;;;;;;5072537;28;20545;-67
2022/09/17 00:17:17;;;;;;;6.93;2.00;;;11.60;99.90;;;;;;5072351;28;20228;-69
2022/09/17 00:19:43;;;;;;;9.83;1.70;;;11.60;99.90;;;;;;5072341;28;20499;-67
2022/09/17 00:22:09;;;;;;;10.57;2.20;;;11.60;99.90;;;;;;5072505;28;20200;-68
2022/09/17 00:24:34;;;;;;;6.17;1.73;;;11.60;99.90;;;;;;5072199;28;20689;-69
2022/09/17 00:27:00;;;;;;;9.40;2.00;;;11.50;99.90;;;;;;5072392;28;20177;-68
2022/09/17 00:29:25;;;;;;;5.03;1.63;;;11.40;99.90;;;;;;5074659;28;20172;-69
2022/09/17 00:31:51;;;;;;;7.60;1.80;;;11.50;99.90;;;;;;5076000;28;20241;-68
2022/09/17 00:34:17;;;;;;;6.33;1.70;;;11.50;99.90;;;;;;5075814;28;20177;-68
2022/09/17 00:36:42;;;;;;;6.60;1.70;;;11.50;99.90;;;;;;5075907;28;20650;-68
2022/09/17 00:39:10;;;;;;;6.77;1.53;;;11.50;99.90;;;;;;5075688;28;20218;-68
2022/09/17 00:41:37;;;;;;;7.77;1.77;;;11.50;99.90;;;;;;5075819;28;20181;-69
2022/09/17 00:44:40;;;;;;;8.57;1.70;;;11.40;99.90;;;;;;5075876;28;20732;-69
2022/09/17 00:47:19;;;;;;;6.13;1.57;;;11.40;99.90;;;;;;5076006;28;20172;-69
2022/09/17 00:49:46;;;;;;;6.47;1.70;;;11.40;99.90;;;;;;5076288;28;20176;-69
2022/09/17 00:52:16;;;;;;;6.77;1.80;;;11.40;99.90;;;;;;5075915;28;20212;-69
2022/09/17 00:54:48;;;;;;;6.03;1.30;;;11.40;99.90;;;;;;5075470;28;20252;-69
2022/09/17 00:57:14;;;;;;;8.47;1.63;;;11.40;99.90;;;;;;5075613;28;20181;-68
2022/09/17 00:59:40;;;;;;;7.37;1.80;;;11.40;99.90;;;;;;5075618;28;20690;-69
2022/09/17 01:02:06;;;;;;;5.40;1.83;;;11.40;99.90;;;;;;5075875;28;20263;-69
2022/09/17 01:04:32;;;;;;;5.13;1.63;;;11.30;99.90;;;;;;5075652;28;20230;-68
2022/09/17 01:07:10;;;;;;;3.43;1.70;;;11.40;99.90;;;;;;5075495;28;20568;-68
2022/09/17 01:10:25;;;;;;;6.77;1.60;;;11.30;99.90;;;;;;5075380;28;20206;-68
2022/09/17 01:13:45;;;;;;;6.20;1.90;;;11.40;99.90;;;;;;5066228;28;20227;-67
2022/09/17 01:16:19;;;;;;;8.20;2.10;;;11.50;99.90;;;;;;5025871;28;20214;-67
2022/09/17 01:18:57;;;;;;;6.80;2.03;;;11.50;99.90;;;;;;5013594;28;20658;-67
2022/09/17 01:22:10;;;;;;;8.47;1.90;;;11.60;99.90;;;;;;5013464;28;20170;-69
2022/09/17 01:24:57;;;;;;;5.17;1.80;;;11.60;99.90;;;;;;5009845;28;20221;-69
2022/09/17 01:27:50;;;;;;;7.43;2.03;;;11.60;99.90;;;;;;5013338;28;20212;-69
2022/09/17 01:30:37;;;;;;;11.03;1.90;;;11.60;99.90;;;;;;5013331;28;20183;-68
2022/09/17 01:33:21;;;;;;;6.57;2.07;;;11.70;99.90;;;;;;5013255;28;20179;-69
2022/09/17 01:36:05;;;;;;;9.20;2.10;;;11.70;99.90;;;;;;5013279;28;20220;-68
2022/09/17 01:38:49;;;;;;;11.63;2.00;;;11.70;99.90;;;;;;5012763;28;20258;-68
2022/09/17 01:41:27;;;;;;;10.43;2.03;;;11.60;99.90;;;;;;5013176;28;20179;-67
2022/09/17 01:44:05;;;;;;;8.97;2.00;;;11.60;99.90;;;;;;5012981;28;20191;-69
2022/09/17 01:46:48;;;;;;;9.47;1.80;;;11.60;99.90;;;;;;5012981;28;20177;-69
2022/09/17 01:49:15;;;;;;;8.10;1.87;;;11.60;99.90;;;;;;5015167;28;20174;-68
2022/09/17 01:51:45;;;;;;;9.40;1.90;;;11.60;99.90;;;;;;5034673;28;20205;-68
2022/09/17 01:54:20;;;;;;;6.60;1.90;;;11.60;99.90;;;;;;5035005;28;20257;-68
2022/09/17 01:57:00;;;;;;;6.50;1.93;;;11.60;99.90;;;;;;5034759;28;20256;-68
2022/09/17 01:59:29;;;;;;;8.93;1.80;;;11.70;99.90;;;;;;5034676;28;20192;-68
2022/09/17 02:02:05;;;;;;;6.27;1.60;;;11.70;99.90;;;;;;5034378;28;20180;-68
2022/09/17 02:04:46;;;;;;;9.93;2.07;;;11.70;99.90;;;;;;5034863;28;20184;-68
2022/09/17 02:07:19;;;;;;;10.47;2.37;;;11.70;99.90;;;;;;5034289;28;20532;-68
2022/09/17 02:09:52;;;;;;;6.03;2.10;;;11.70;99.90;;;;;;5034723;28;20512;-68
2022/09/17 02:12:23;;;;;;;8.00;1.93;;;11.70;99.90;;;;;;5034227;28;20260;-68
2022/09/17 02:14:52;;;;;;;15.07;2.20;;;11.60;99.90;;;;;;5034337;28;20201;-69
2022/09/17 02:17:29;;;;;;;9.97;2.00;;;11.70;99.90;;;;;;5066809;28;20219;-68
2022/09/17 02:19:55;;;;;;;5.17;1.80;;;11.70;99.90;;;;;;5073919;28;20259;-68
2022/09/17 02:22:41;;;;;;;11.70;2.27;;;11.70;99.90;;;;;;5074253;28;20180;-67
2022/09/17 02:25:27;;;;;;;12.97;2.13;;;11.70;99.90;;;;;;5073911;28;20176;-68
2022/09/17 02:27:55;;;;;;;7.47;2.00;;;11.80;99.90;;;;;;5074031;28;20250;-69
2022/09/17 02:30:21;;;;;;;13.87;2.20;;;11.80;99.90;;;;;;5073873;28;20196;-68
2022/09/17 02:32:47;;;;;;;11.00;2.27;;;11.80;99.90;;;;;;5073952;28;20247;-68
2022/09/17 02:35:13;;;;;;;9.27;1.90;;;11.80;99.90;;;;;;5073488;28;20176;-68
2022/09/17 02:37:40;;;;;;;7.80;2.37;;;11.70;99.90;;;;;;5073898;28;20646;-68
2022/09/17 02:40:07;;;;;;;10.30;2.13;;;11.70;99.90;;;;;;5073785;28;20187;-67
2022/09/17 02:42:54;;;;;;;11.30;2.73;;;11.70;99.90;;;;;;5073716;28;20689;-67
2022/09/17 02:45:51;;;;;;;6.53;1.63;;;11.80;99.90;;;;;;5073761;28;20172;-68
2022/09/17 02:48:36;;;;;;;9.40;1.93;;;11.80;99.90;;;;;;5073738;28;20651;-66
2022/09/17 02:51:19;;;;;;;8.77;1.70;;;11.80;99.90;;;;;;5072662;28;20253;-67
2022/09/17 02:53:56;;;;;;;5.93;1.63;;;11.80;99.90;;;;;;5073493;28;20180;-69
2022/09/17 02:56:39;;;;;;;6.53;1.60;;;11.80;99.90;;;;;;5072216;28;20550;-67
2022/09/17 02:59:23;;;;;;;10.67;2.00;;;11.80;99.90;;;;;;5073395;28;20196;-67
2022/09/17 03:02:16;;;;;;;8.87;1.90;;;11.80;99.90;;;;;;5073711;28;20176;-67
2022/09/17 03:04:45;;;;;;;7.60;2.30;;;11.90;99.90;;;;;;5073048;28;20526;-68
2022/09/17 03:07:12;;;;;;;13.13;2.00;;;11.70;99.90;;;;;;5073195;28;20164;-68
2022/09/17 03:09:39;;;;;;;8.43;2.37;;;11.70;99.90;;;;;;5073327;28;20243;-68
2022/09/17 03:12:05;;;;;;;6.77;1.93;;;11.60;99.90;;;;;;5073206;28;20208;-67
2022/09/17 03:14:31;;;;;;;11.47;2.10;;;11.60;99.90;;;;;;5073277;28;20164;-68
2022/09/17 03:16:56;;;;;;;7.50;2.00;;;11.50;99.90;;;;;;5072939;28;20311;-68
2022/09/17 03:19:22;;;;;;;8.40;2.13;;;11.40;99.90;;;;;;5072639;28;20183;-68
2022/09/17 03:21:48;;;;;;;13.93;2.20;;;11.30;99.90;;;;;;5073087;28;20537;-68
2022/09/17 03:24:13;;;;;;;9.97;2.10;;;11.30;99.90;;;;;;5073131;28;20169;-68
2022/09/17 03:26:39;;;;;;;10.00;2.40;;;11.30;99.90;;;;;;5073311;28;20517;-68
2022/09/17 03:29:04;;;;;;;9.33;2.53;;;11.30;99.90;;;;;;5073098;28;20217;-67
2022/09/17 03:31:30;;;;;;;11.87;2.10;;;11.30;99.90;;;;;;5072975;28;20235;-69
2022/09/17 03:33:57;;;;;;;11.23;2.40;;;11.10;99.90;;;;;;5072613;28;20499;-68
2022/09/17 03:36:23;;;;;;;9.50;2.13;;;11.10;99.90;;;;;;5072760;28;20176;-68
2022/09/17 03:38:54;;;;;;;10.67;2.63;;;11.10;99.90;;;;;;5073058;28;20533;-68
2022/09/17 03:41:19;;;;;;;8.67;2.40;;;11.10;99.90;;;;;;5073101;28;20192;-68
2022/09/17 03:43:45;;;;;;;9.83;2.30;;;11.10;99.90;;;;;;5072584;28;20262;-68
2022/09/17 03:46:10;;;;;;;9.50;2.83;;;11.10;99.90;;;;;;5072707;28;20172;-68
2022/09/17 03:48:38;;;;;;;7.40;2.23;;;11.00;99.90;;;;;;5072648;28;20168;-68
2022/09/17 03:51:04;;;;;;;10.80;2.80;;;10.90;99.90;;;;;;5072826;28;20188;-68
2022/09/17 03:53:30;;;;;;;7.87;2.43;;;10.90;99.90;;;;;;5072562;28;20304;-68
2022/09/17 03:56:01;;;;;;;8.47;2.17;;;10.80;99.90;;;;;;5072851;28;20203;-68
2022/09/17 03:58:28;;;;;;;13.00;2.97;;;10.80;99.90;;;;;;5072671;28;20165;-68
2022/09/17 04:00:56;;;;;;;10.23;2.53;;;10.80;99.90;;;;;;5072406;28;20177;-69
2022/09/17 04:03:23;;;;;;;12.97;2.80;;;10.80;99.90;;;;;;5074978;28;20248;-68
2022/09/17 04:05:49;;;;;;;13.33;2.53;;;10.80;99.90;;;;;;5076288;28;20169;-69
2022/09/17 04:08:14;;;;;;;14.17;2.63;;;10.80;99.90;;;;;;5076301;28;20175;-69
2022/09/17 04:10:40;;;;;;;11.57;2.50;;;10.80;99.90;;;;;;5076306;28;20533;-68
2022/09/17 04:13:06;;;;;;;9.83;2.57;;;10.80;99.90;;;;;;5076262;28;20509;-68
2022/09/17 04:15:32;;;;;;;14.43;2.43;;;10.80;99.90;;;;;;5076258;28;20176;-68
2022/09/17 04:17:58;;;;;;;8.67;2.17;;;10.80;99.90;;;;;;5075916;28;20180;-68
2022/09/17 04:20:24;;;;;;;14.50;2.77;;;10.80;99.90;;;;;;5075982;28;20480;-68
2022/09/17 04:22:50;;;;;;;10.83;3.03;;;10.70;99.90;;;;;;5076297;28;20192;-67
2022/09/17 04:25:16;;;;;;;16.57;3.13;;;10.80;99.90;;;;;;5075536;28;20222;-68
2022/09/17 04:27:43;;;;;;;11.53;2.90;;;10.80;99.90;;;;;;5075331;28;20173;-68
2022/09/17 04:30:09;;;;;;;16.27;2.40;;;10.70;99.90;;;;;;5076067;28;20160;-68
2022/09/17 04:32:35;;;;;;;22.17;2.57;;;10.60;99.90;;;;;;5075576;28;20215;-69
2022/09/17 04:35:00;;;;;;;14.30;2.90;;;10.50;99.90;;;;;;5076055;28;20164;-68
2022/09/17 04:37:26;;;;;;;13.13;2.80;;;10.50;99.90;;;;;;5075979;28;20178;-68
2022/09/17 04:39:52;;;;;;;11.73;3.00;;;10.50;99.90;;;;;;5076046;28;20263;-67
2022/09/17 04:42:18;;;;;;;15.10;2.97;;;10.50;99.90;;;;;;5075809;28;20496;-68
2022/09/17 04:44:43;;;;;;;12.17;2.60;;;10.60;99.90;;;;;;5075206;28;20556;-67
2022/09/17 04:47:09;;;;;;;12.77;3.20;;;10.60;99.90;;;;;;5075581;28;20222;-68
2022/09/17 04:49:34;;;;;;;11.00;2.80;;;10.70;99.90;;;;;;5075704;28;20179;-68
2022/09/17 04:52:00;;;;;;;15.40;2.70;;;10.80;99.90;;;;;;5075703;28;20290;-68
2022/09/17 04:54:26;;;;;;;12.77;2.87;;;10.70;99.90;;;;;;5075712;28;20541;-68
2022/09/17 04:56:51;;;;;;;8.93;2.50;;;10.70;99.90;;;;;;5074826;28;20184;-68
2022/09/17 04:59:17;;;;;;;10.23;2.77;;;10.70;99.90;;;;;;5074904;28;20255;-68
2022/09/17 05:01:43;;;;;;;14.30;2.93;;;10.70;99.90;;;;;;5075476;28;20216;-69
2022/09/17 05:04:09;;;;;;;11.97;3.00;;;10.80;99.90;;;;;;5075689;28;20184;-69
2022/09/17 05:06:35;;;;;;;12.00;2.80;;;10.80;99.90;;;;;;5075130;28;20187;-68
2022/09/17 05:09:01;;;;;;;16.17;2.50;;;10.70;99.90;;;;;;5075209;28;20168;-69
2022/09/17 05:11:27;;;;;;;16.83;2.90;;;10.70;99.90;;;;;;5074952;28;20200;-68
2022/09/17 05:13:53;;;;;;;10.77;2.63;;;10.70;99.90;;;;;;5073600;28;20200;-68
2022/09/17 05:16:19;;;;;;;15.93;2.90;;;10.70;99.90;;;;;;5075077;28;20317;-68
2022/09/17 05:18:44;;;;;;;14.43;2.80;;;10.80;99.90;;;;;;5075299;28;20656;-67
2022/09/17 05:21:10;;;;;;;13.63;2.50;;;10.80;99.90;;;;;;5074659;28;20514;-68
2022/09/17 05:23:36;;;;;;;13.87;2.67;;;10.70;99.90;;;;;;5074929;28;20192;-68
2022/09/17 05:26:01;;;;;;;13.07;3.00;;;10.70;99.90;;;;;;5074472;28;20165;-68
2022/09/17 05:28:28;;;;;;;12.80;2.93;;;10.70;99.90;;;;;;5074634;28;20187;-68
2022/09/17 05:30:53;;;;;;;17.50;2.93;;;10.70;99.90;;;;;;5075145;28;20230;-68
2022/09/17 05:33:19;;;;;;;25.43;8.97;;;10.80;99.90;;;;;;5074904;28;20263;-68
2022/09/17 05:35:45;;;;;;;15.20;3.10;;;10.90;99.90;;;;;;5074842;28;20525;-68
2022/09/17 05:38:11;;;;;;;14.87;2.87;;;11.00;99.90;;;;;;5074881;28;20177;-68
2022/09/17 05:40:37;;;;;;;9.07;2.33;;;11.00;99.90;;;;;;5074034;28;20200;-69
2022/09/17 05:43:05;;;;;;;9.93;2.57;;;10.90;99.90;;;;;;5074123;28;20595;-68
2022/09/17 05:45:32;;;;;;;12.67;2.93;;;10.90;99.90;;;;;;5074494;28;20268;-67
2022/09/17 05:48:00;;;;;;;13.70;3.00;;;11.10;99.90;;;;;;5074653;28;20184;-67
2022/09/17 05:50:28;;;;;;;7.67;2.23;;;11.10;99.90;;;;;;5074126;28;20161;-68
2022/09/17 05:52:54;;;;;;;11.67;2.70;;;11.20;99.90;;;;;;5074320;28;20220;-67
2022/09/17 05:55:22;;;;;;;8.17;2.67;;;11.20;99.90;;;;;;5074023;28;20200;-68
2022/09/17 05:57:49;;;;;;;7.30;2.27;;;11.30;99.90;;;;;;5073523;28;20255;-67
2022/09/17 06:00:15;;;;;;;10.60;2.50;;;11.40;99.90;;;;;;5074108;28;20300;-67
2022/09/17 06:02:41;;;;;;;11.93;2.67;;;11.40;99.90;;;;;;5074453;28;20173;-67
2022/09/17 06:05:07;;;;;;;10.63;2.97;;;11.50;99.90;;;;;;5074197;28;20183;-67
2022/09/17 06:07:36;;;;;;;10.40;2.93;;;11.40;99.90;;;;;;5073877;28;20180;-68
2022/09/17 06:10:04;;;;;;;6.90;2.27;;;11.50;99.90;;;;;;5073630;28;20173;-69
2022/09/17 06:12:30;;;;;;;10.13;2.43;;;11.50;99.90;;;;;;5073036;28;20211;-67
2022/09/17 06:14:55;;;;;;;11.63;2.67;;;11.60;99.90;;;;;;5074126;28;20169;-68
2022/09/17 06:17:21;;;;;;;12.10;2.60;;;11.60;99.90;;;;;;5073783;28;20589;-68
2022/09/17 06:19:46;;;;;;;12.13;2.53;;;11.70;99.90;;;;;;5073997;28;20183;-68
2022/09/17 06:22:12;;;;;;;12.83;3.00;;;11.70;99.90;;;;;;5073793;28;20655;-68
2022/09/17 06:24:37;;;;;;;12.77;2.70;;;11.80;99.90;;;;;;5073579;28;20647;-68
2022/09/17 06:27:03;;;;;;;10.20;2.67;;;11.80;99.90;;;;;;5073150;28;20257;-68
2022/09/17 06:29:29;;;;;;;8.73;2.00;;;11.90;99.90;;;;;;5073331;28;20634;-67
2022/09/17 06:31:55;;;;;;;15.23;3.10;;;12.10;99.90;;;;;;5073817;28;20216;-69
2022/09/17 06:34:21;;;;;;;7.83;2.50;;;12.30;99.90;;;;;;5073643;28;20524;-68
2022/09/17 06:36:48;;;;;;;14.00;2.83;;;12.40;99.90;;;;;;5073471;28;20180;-68
2022/09/17 06:39:14;;;;;;;10.60;2.37;;;12.50;99.90;;;;;;5073202;28;20167;-68
2022/09/17 06:41:43;;;;;;;12.07;2.83;;;12.50;99.90;;;;;;5072393;28;20538;-68
2022/09/17 06:44:09;;;;;;;9.87;2.13;;;12.60;99.90;;;;;;5073339;28;20214;-67
2022/09/17 06:46:35;;;;;;;10.00;2.40;;;12.60;99.90;;;;;;5072508;28;20245;-68
2022/09/17 06:49:00;;;;;;;6.63;2.03;;;12.70;99.90;;;;;;5072820;28;20191;-68
2022/09/17 06:51:26;;;;;;;10.00;2.57;;;12.70;99.90;;;;;;5073316;28;20254;-68
2022/09/17 06:53:51;;;;;;;10.80;1.90;;;12.70;99.90;;;;;;5105730;28;20206;-68
2022/09/17 06:56:17;;;;;;;7.97;2.03;;;12.80;99.90;;;;;;5072724;28;20177;-68
2022/09/17 06:58:43;;;;;;;9.23;1.80;;;12.80;99.90;;;;;;5072633;28;20200;-68
2022/09/17 07:01:12;;;;;;;5.33;1.50;;;13.10;99.90;;;;;;5072479;28;20569;-68
2022/09/17 07:03:41;;;;;;;9.90;2.13;;;13.10;92.10;;;;;;5073110;28;20179;-67
2022/09/17 07:06:09;;;;;;;5.10;1.97;;;13.30;94.60;;;;;;5072624;28;20264;-68
2022/09/17 07:08:35;;;;;;;6.63;2.10;;;13.70;95.30;;;;;;5072632;28;20183;-67
2022/09/17 07:11:01;;;;;;;7.57;2.10;;;13.80;84.50;;;;;;5072431;28;20192;-68
2022/09/17 07:13:26;;;;;;;5.00;2.20;;;14.10;69.50;;;;;;5072622;28;20605;-68
2022/09/17 07:15:57;;;;;;;5.00;1.90;;;14.10;64.30;;;;;;5072744;28;20295;-68
2022/09/17 07:18:23;;;;;;;8.10;2.20;;;13.90;64.20;;;;;;5072694;28;20177;-68
2022/09/17 07:20:54;;;;;;;6.50;2.07;;;13.50;76.50;;;;;;5072822;28;20184;-67
2022/09/17 07:23:20;;;;;;;8.30;2.27;;;13.40;91.70;;;;;;5072899;28;20168;-68
2022/09/17 07:25:51;;;;;;;8.17;2.10;;;13.10;95.90;;;;;;5071795;28;20172;-68
2022/09/17 07:28:16;;;;;;;7.80;2.03;;;13.00;99.90;;;;;;5072483;28;20226;-68
2022/09/17 07:30:42;;;;;;;8.93;2.43;;;12.90;99.90;;;;;;5072555;28;20176;-68
2022/09/17 07:33:08;;;;;;;9.00;2.40;;;12.90;99.90;;;;;;5072580;28;20176;-68
2022/09/17 07:35:33;;;;;;;7.17;1.90;;;12.90;99.90;;;;;;5072746;28;20264;-68
2022/09/17 07:37:59;;;;;;;6.40;2.27;;;13.00;99.90;;;;;;5076663;28;20245;-67
2022/09/17 07:40:24;;;;;;;8.00;1.90;;;13.10;99.90;;;;;;5079153;28;20694;-67
2022/09/17 07:42:50;;;;;;;8.43;2.20;;;13.40;99.90;;;;;;5079176;28;20169;-67
2022/09/17 07:45:16;;;;;;;8.13;2.10;;;13.50;99.90;;;;;;5078704;28;20177;-67
2022/09/17 07:47:43;;;;;;;6.60;1.90;;;13.40;99.90;;;;;;5078772;28;20164;-67
2022/09/17 07:50:09;;;;;;;9.07;2.10;;;13.70;98.40;;;;;;5079098;28;20179;-67
2022/09/17 07:52:34;;;;;;;5.63;1.80;;;13.80;99.90;;;;;;5079395;28;20211;-68
2022/09/17 07:55:00;;;;;;;9.20;2.30;;;14.00;87.50;;;;;;5078506;28;20203;-68
2022/09/17 07:57:26;;;;;;;10.87;2.40;;;14.30;90.60;;;;;;5078338;28;20628;-68
2022/09/17 07:59:51;;;;;;;14.50;3.67;;;15.40;87.80;;;;;;5079021;28;20192;-70
2022/09/17 08:02:17;;;;;;;8.67;2.13;;;17.40;16.70;;;;;;5078988;28;20172;-70
2022/09/17 08:04:42;;;;;;;10.40;2.25;;;18.30;1.00;;;;;;5078962;28;20176;-71
2022/09/17 08:07:13;;;;;;;4.85;1.90;;;18.70;1.00;;;;;;5078648;28;20544;-69
2022/09/17 08:09:38;;;;;;;5.90;1.85;;;18.90;1.00;;;;;;5078806;28;20196;-69
2022/09/17 08:12:04;;;;;;;6.82;2.10;;;18.80;1.00;;;;;;5077948;28;20235;-70
2022/09/17 08:14:30;;;;;;;12.63;2.25;;;18.20;1.00;;;;;;5078767;28;20179;-69
2022/09/17 08:16:56;;;;;;;5.65;2.10;;;17.60;1.00;;;;;;5078206;28;20263;-68
2022/09/17 08:19:21;;;;;;;7.03;2.20;;;16.90;1.00;;;;;;5078894;28;20506;-70
2022/09/17 08:21:47;;;;;;;4.87;1.90;;;16.40;1.00;;;;;;5079114;28;20238;-69
2022/09/17 08:24:14;;;;;;;5.00;1.83;;;16.10;4.70;;;;;;5078705;28;20299;-68
2022/09/17 08:26:40;;;;;;;5.83;1.63;;;15.80;15.00;;;;;;5078816;28;20207;-69
2022/09/17 08:29:06;;;;;;;6.33;2.00;;;15.70;20.70;;;;;;5078404;28;20263;-70
2022/09/17 08:31:32;;;;;;;8.23;2.20;;;16.40;27.50;;;;;;5078522;28;20759;-69
2022/09/17 08:33:58;;;;;;;10.00;2.00;;;17.00;1.00;;;;;;5079227;28;20252;-70
2022/09/17 08:36:25;;;;;;;6.18;2.13;;;18.10;1.00;;;;;;5078642;28;20177;-72
2022/09/17 08:38:54;;;;;;;6.32;2.17;;;19.30;1.00;;;;;;5078563;28;20676;-71
2022/09/17 08:41:39;;;;;;;7.75;1.95;;;20.30;1.00;;;;;;5078749;28;20528;-72
2022/09/17 08:44:21;;;;;;;7.85;2.00;;;21.40;1.00;;;;;;5078073;28;20198;-72
2022/09/17 08:46:59;;;;;;;9.38;2.30;;;21.70;99.90;;;;;;5078956;28;20180;-72
2022/09/17 08:49:34;;;;;;;5.32;1.90;;;21.30;99.90;;;;;;5075102;28;20259;-71
2022/09/17 08:52:40;;;;;;;4.60;1.85;;;19.60;1.00;;;;;;5074784;28;20229;-71
2022/09/17 08:55:22;;;;;;;3.55;1.63;;;18.30;1.00;;;;;;5058818;28;20271;-71
2022/09/17 08:58:06;;;;;;;6.30;2.25;;;17.80;1.00;;;;;;5075745;28;20172;-71
2022/09/17 09:00:50;;;;;;;5.38;1.60;;;17.90;1.00;;;;;;5074588;28;20690;-72
2022/09/17 09:03:31;;;;;;;7.47;2.00;;;18.60;1.00;;;;;;5075514;28;20620;-71
2022/09/17 09:05:59;;;;;;;5.53;1.75;;;19.00;1.00;;;;;;5074534;28;20186;-71
2022/09/17 09:08:29;;;;;;;4.97;1.90;;;19.60;1.00;;;;;;5075056;28;20204;-72
2022/09/17 09:10:57;;;;;;;6.80;2.03;;;19.20;1.00;;;;;;5074906;28;20222;-72
2022/09/17 09:13:32;;;;;;;3.58;1.60;;;19.00;1.00;;;;;;5074634;28;20196;-71
2022/09/17 09:16:13;;;;;;;3.60;1.58;;;18.60;1.00;;;;;;5074916;28;20675;-70
2022/09/17 09:18:41;;;;;;;3.17;1.48;;;18.00;1.00;;;;;;5075081;28;20222;-69
2022/09/17 09:21:21;;;;;;;4.70;1.65;;;17.40;1.00;;;;;;5074241;28;20184;-70
2022/09/17 09:24:08;;;;;;;4.07;1.70;;;17.40;1.00;;;;;;5075201;28;20172;-70
2022/09/17 09:27:05;;;;;;;3.92;1.80;;;17.50;1.00;;;;;;5075017;28;20184;-70
2022/09/17 09:29:43;;;;;;;4.65;2.10;;;17.40;1.00;;;;;;5065992;28;20246;-71
2022/09/17 09:32:17;;;;;;;6.37;1.90;;;17.30;1.00;;;;;;5074487;28;20207;-69
2022/09/17 09:34:43;;;;;;;4.17;1.90;;;16.60;11.30;;;;;;5073764;28;20169;-70
2022/09/17 09:37:20;;;;;;;4.83;1.80;;;16.30;29.70;;;;;;5074956;28;20187;-69
2022/09/17 09:39:49;;;;;;;6.07;1.40;;;16.20;28.60;;;;;;5074668;28;20314;-70
2022/09/17 09:42:32;;;;;;;4.53;1.87;;;16.20;17.70;;;;;;5074148;28;20176;-69
2022/09/17 09:45:03;;;;;;;4.87;1.43;;;16.50;6.90;;;;;;5073769;28;20612;-69
2022/09/17 09:48:10;;;;;;;4.27;1.47;;;16.70;4.00;;;;;;5074271;28;20647;-70
2022/09/17 09:50:54;;;;;;;6.93;1.57;;;16.60;1.00;;;;;;5053034;28;20271;-71
2022/09/17 09:53:31;;;;;;;2.23;1.47;;;16.80;1.00;;;;;;5074148;28;20187;-69
2022/09/17 09:56:03;;;;;;;4.40;1.50;;;17.40;1.00;;;;;;5074030;28;20259;-70
2022/09/17 09:58:36;;;;;;;1.92;1.23;;;18.10;1.00;;;;;;5073887;28;20192;-71
2022/09/17 10:01:26;;;;;;;4.85;1.30;;;18.80;1.00;;;;;;5072386;28;20168;-71
2022/09/17 10:03:52;;;;;;;2.97;1.23;;;19.80;1.00;;;;;;5073836;28;20180;-71
2022/09/17 10:06:19;;;;;;;3.88;1.40;;;20.00;1.00;;;;;;5073316;28;20161;-71
2022/09/17 10:08:54;;;;;;;4.03;1.60;;;20.20;1.00;;;;;;5073800;28;20176;-71
2022/09/17 10:11:25;;;;;;;2.15;1.00;;;20.10;1.00;;;;;;5073730;28;20195;-72
2022/09/17 10:13:51;;;;;;;2.22;1.00;;;19.80;1.00;;;;;;5073469;28;20203;-71
2022/09/17 10:16:18;;;;;;;2.10;0.95;;;19.70;1.00;;;;;;5073466;28;20688;-70
2022/09/17 10:18:48;;;;;;;1.83;1.00;;;19.10;1.00;;;;;;5073004;28;20286;-70
2022/09/17 10:21:30;;;;;;;2.45;0.93;;;19.00;1.00;;;;;;5073140;28;20631;-70
2022/09/17 10:23:56;;;;;;;1.63;1.02;;;18.50;1.00;;;;;;5073765;28;20168;-70
2022/09/17 10:26:35;;;;;;;2.60;1.00;;;17.70;1.00;;;;;;5073254;28;20180;-71
2022/09/17 10:29:04;;;;;;;2.33;1.05;;;17.10;1.00;;;;;;5073353;28;20221;-73
2022/09/17 10:31:45;;;;;;;2.90;1.10;;;16.90;1.00;;;;;;5073117;28;20254;-71
2022/09/17 10:34:19;;;;;;;3.88;1.13;;;16.90;1.00;;;;;;5072951;28;20200;-71
2022/09/17 10:36:46;;;;;;;3.27;1.40;;;16.70;1.00;;;;;;5073045;28;20589;-71
2022/09/17 10:39:28;;;;;;;2.13;1.20;;;16.50;1.00;;;;;;5073695;28;20207;-70
2022/09/17 10:41:54;;;;;;;2.70;1.30;;;16.50;1.00;;;;;;5072945;28;20172;-70
2022/09/17 10:44:22;;;;;;;2.67;1.20;;;16.30;1.00;;;;;;5072512;28;20191;-70
2022/09/17 10:46:50;;;;;;;2.30;1.20;;;16.50;1.00;;;;;;5072727;28;20169;-70
2022/09/17 10:49:35;;;;;;;1.63;1.13;;;16.80;1.00;;;;;;5072002;28;20168;-71
2022/09/17 10:52:29;;;;;;;2.63;1.17;;;17.10;1.00;;;;;;5072034;28;20219;-71
2022/09/17 10:55:36;;;;;;;6.40;1.40;;;17.10;1.00;;;;;;5072308;28;20180;-70
2022/09/17 10:58:06;;;;;;;4.13;1.40;;;17.00;1.00;;;;;;5030314;28;20182;-70
2022/09/17 11:00:58;;;;;;;4.93;1.10;;;16.70;1.00;;;;;;5029732;28;20257;-71
2022/09/17 11:03:43;;;;;;;2.75;1.08;;;16.80;1.00;;;;;;5030239;28;20622;-71
2022/09/17 11:06:46;;;;;;;3.63;1.00;;;16.90;1.00;;;;;;5030391;28;20186;-69
2022/09/17 11:09:18;;;;;;;2.42;1.02;;;17.20;1.00;;;;;;5030903;28;20181;-71
2022/09/17 11:12:11;;;;;;;2.08;1.00;;;17.10;1.00;;;;;;5030303;28;20212;-71
2022/09/17 11:14:56;;;;;;;3.13;1.25;;;17.20;1.00;;;;;;5029534;28;20204;-69
2022/09/17 11:17:30;;;;;;;2.47;1.25;;;17.20;1.00;;;;;;5013994;28;20291;-70
2022/09/17 11:20:22;;;;;;;3.25;1.23;;;17.20;1.00;;;;;;5010586;28;20224;-70
2022/09/17 11:23:04;;;;;;;2.58;1.25;;;17.20;1.00;;;;;;4971756;28;20180;-70
2022/09/17 11:25:43;;;;;;;1.50;1.27;;;16.90;1.00;;;;;;4971605;28;20180;-70
2022/09/17 11:28:14;;;;;;;6.87;1.37;;;16.50;1.00;;;;;;4971264;28;20212;-70
2022/09/17 11:30:48;;;;;;;3.17;1.30;;;16.40;1.00;;;;;;4971121;28;20266;-71
2022/09/17 11:33:32;;;;;;;3.20;1.17;;;16.60;1.00;;;;;;4971722;28;20796;-70
2022/09/17 11:36:12;;;;;;;2.43;1.40;;;16.40;1.00;;;;;;4971545;28;20175;-70
2022/09/17 11:38:48;;;;;;;1.90;1.30;;;16.30;11.10;;;;;;4971334;28;20671;-71
2022/09/17 11:41:22;;;;;;;7.50;1.50;;;16.40;11.80;;;;;;4971951;28;20218;-71
2022/09/17 11:43:59;;;;;;;2.87;1.40;;;16.40;6.60;;;;;;4970896;28;20203;-70
2022/09/17 11:46:40;;;;;;;4.40;1.50;;;16.40;20.10;;;;;;4971063;28;20191;-71
2022/09/17 11:49:48;;;;;;;3.27;1.73;;;16.30;21.10;;;;;;4971809;28;20172;-70
2022/09/17 11:52:22;;;;;;;4.83;1.60;;;16.40;25.30;;;;;;4965903;28;20389;-71
2022/09/17 11:55:00;;;;;;;3.07;1.77;;;16.50;19.80;;;;;;4970732;28;20174;-70
2022/09/17 11:57:34;;;;;;;5.20;1.80;;;16.60;14.90;;;;;;4971357;28;20205;-70
2022/09/17 12:00:07;;;;;;;4.20;1.70;;;16.80;12.30;;;;;;5011362;28;20209;-71
2022/09/17 12:02:45;;;;;;;3.83;1.95;;;17.20;17.60;;;;;;5031755;28;20166;-72
2022/09/17 12:05:16;;;;;;;4.35;1.50;;;17.60;1.00;;;;;;5031713;28;20538;-72
2022/09/17 12:07:58;;;;;;;2.80;1.70;;;18.10;1.00;;;;;;5032240;28;20220;-72
2022/09/17 12:11:00;;;;;;;5.20;1.73;;;18.40;1.00;;;;;;5032250;28;20177;-70
2022/09/17 12:13:39;;;;;;;6.65;2.38;;;18.70;1.00;;;;;;5031610;28;20189;-72
2022/09/17 12:16:25;;;;;;;8.40;2.20;;;18.70;1.00;;;;;;5042131;28;20262;-71
2022/09/17 12:19:06;;;;;;;5.47;2.05;;;18.30;1.00;;;;;;5071894;28;20196;-71
2022/09/17 12:21:55;;;;;;;4.47;2.05;;;18.50;1.00;;;;;;5071073;28;20494;-71
2022/09/17 12:24:26;;;;;;;8.95;2.72;;;18.10;1.00;;;;;;5073744;28;20298;-71
2022/09/17 12:27:07;;;;;;;5.05;2.30;;;17.90;1.00;;;;;;5075517;28;20527;-71
2022/09/17 12:29:33;;;;;;;7.32;2.17;;;17.80;1.00;;;;;;5075477;28;20176;-71
2022/09/17 12:32:13;;;;;;;5.05;2.17;;;17.30;1.00;;;;;;5074908;28;20347;-71
2022/09/17 12:34:57;;;;;;;7.10;2.38;;;17.20;1.00;;;;;;5074916;28;20191;-70
2022/09/17 12:37:56;;;;;;;9.50;3.28;;;17.10;1.00;;;;;;5075236;28;20173;-70
2022/09/17 12:40:51;;;;;;;8.27;4.25;;;17.10;1.00;;;;;;5075648;28;20173;-70
2022/09/17 12:43:35;;;;;;;10.02;3.50;;;17.40;1.00;;;;;;5074777;28;20161;-71
2022/09/17 12:46:32;;;;;;;5.70;2.30;;;17.30;1.00;;;;;;5075254;28;20168;-71
2022/09/17 12:49:17;;;;;;;11.52;4.22;;;17.10;1.00;;;;;;5075018;28;20169;-71
2022/09/17 12:52:02;;;;;;;7.07;3.40;;;17.20;1.00;;;;;;5075349;28;20214;-71
2022/09/17 12:54:52;;;;;;;11.10;3.57;;;17.20;1.00;;;;;;5074761;28;20260;-69
2022/09/17 12:57:49;;;;;;;8.07;2.80;;;16.60;1.00;;;;;;5074956;28;20242;-70
2022/09/17 13:00:16;;;;;;;10.20;2.63;;;16.30;24.30;;;;;;5074475;28;20250;-69
2022/09/17 13:02:53;;;;;;;7.10;3.03;;;16.00;26.40;;;;;;5074448;28;20697;-70
2022/09/17 13:05:25;;;;;;;7.13;3.70;;;15.70;32.20;;;;;;5074342;28;20624;-68
2022/09/17 13:08:02;;;;;;;7.90;2.33;;;15.40;38.00;;;;;;5075222;28;20214;-70
2022/09/17 13:10:50;;;;;;;4.80;1.77;;;15.00;29.20;;;;;;5074825;28;20164;-70
2022/09/17 13:13:31;;;;;;;11.00;4.10;;;14.60;1.00;;;;;;5073889;28;20211;-69
2022/09/17 13:16:25;;;;;;;7.70;3.30;;;14.30;17.40;;;;;;5074512;28;20307;-68